sensor_id;sensor_type;location;lat;lon;timestamp;P1;durP1;ratioP1;P2;durP2;ratioP2
18159;SDS011;9205;52.032;4.314;2022-07-06T00:00:54;1.43;;;0.60;;
18159;SDS011;9205;52.032;4.314;2022-07-06T00:03:21;0.50;;;0.50;;
18159;SDS011;9205;52.032;4.314;2022-07-06T00:05:48;0.50;;;0.50;;
18159;SDS011;9205;52.032;4.314;2022-07-06T00:08:30;0.97;;;0.60;;
18159;SDS011;9205;52.032;4.314;2022-07-06T00:14:32;4.23;;;0.70;;
18159;SDS011;9205;52.032;4.314;2022-07-06T00:17:00;3.67;;;0.60;;
18159;SDS011;9205;52.032;4.314;2022-07-06T00:19:28;0.63;;;0.60;;
18159;SDS011;9205;52.032;4.314;2022-07-06T00:21:55;1.27;;;0.77;;
18159;SDS011;9205;52.032;4.314;2022-07-06T00:24:22;0.60;;;0.60;;
18159;SDS011;9205;52.032;4.314;2022-07-06T00:26:49;1.47;;;0.70;;
18159;SDS011;9205;52.032;4.314;2022-07-06T00:29:17;1.70;;;0.50;;
18159;SDS011;9205;52.032;4.314;2022-07-06T00:31:45;1.93;;;0.60;;
18159;SDS011;9205;52.032;4.314;2022-07-06T00:34:12;1.83;;;0.57;;
18159;SDS011;9205;52.032;4.314;2022-07-06T00:36:40;0.60;;;0.50;;
18159;SDS011;9205;52.032;4.314;2022-07-06T00:39:07;2.63;;;0.63;;
18159;SDS011;9205;52.032;4.314;2022-07-06T00:41:34;0.60;;;0.60;;
18159;SDS011;9205;52.032;4.314;2022-07-06T00:44:05;2.70;;;0.60;;
18159;SDS011;9205;52.032;4.314;2022-07-06T00:46:35;1.23;;;0.70;;
18159;SDS011;9205;52.032;4.314;2022-07-06T00:49:04;2.40;;;0.60;;
18159;SDS011;9205;52.032;4.314;2022-07-06T00:51:51;1.03;;;0.60;;
18159;SDS011;9205;52.032;4.314;2022-07-06T00:54:18;1.63;;;0.60;;
18159;SDS011;9205;52.032;4.314;2022-07-06T00:56:46;2.87;;;0.60;;
18159;SDS011;9205;52.032;4.314;2022-07-06T00:59:13;1.07;;;0.60;;
18159;SDS011;9205;52.032;4.314;2022-07-06T01:01:41;1.83;;;0.80;;
18159;SDS011;9205;52.032;4.314;2022-07-06T01:04:12;1.70;;;0.80;;
18159;SDS011;9205;52.032;4.314;2022-07-06T01:06:42;2.27;;;0.60;;
18159;SDS011;9205;52.032;4.314;2022-07-06T01:09:12;1.07;;;0.60;;
18159;SDS011;9205;52.032;4.314;2022-07-06T01:11:39;1.37;;;0.60;;
18159;SDS011;9205;52.032;4.314;2022-07-06T01:14:07;0.90;;;0.60;;
18159;SDS011;9205;52.032;4.314;2022-07-06T01:16:35;0.80;;;0.63;;
18159;SDS011;9205;52.032;4.314;2022-07-06T01:19:03;2.20;;;0.70;;
18159;SDS011;9205;52.032;4.314;2022-07-06T01:21:32;1.77;;;0.80;;
18159;SDS011;9205;52.032;4.314;2022-07-06T01:23:59;0.73;;;0.57;;
18159;SDS011;9205;52.032;4.314;2022-07-06T01:26:27;0.83;;;0.60;;
18159;SDS011;9205;52.032;4.314;2022-07-06T01:28:54;2.13;;;0.53;;
18159;SDS011;9205;52.032;4.314;2022-07-06T01:31:22;2.00;;;0.87;;
18159;SDS011;9205;52.032;4.314;2022-07-06T01:33:52;0.63;;;0.63;;
18159;SDS011;9205;52.032;4.314;2022-07-06T01:36:22;1.77;;;0.80;;
18159;SDS011;9205;52.032;4.314;2022-07-06T01:38:52;0.73;;;0.50;;
18159;SDS011;9205;52.032;4.314;2022-07-06T01:41:23;7.23;;;0.80;;
18159;SDS011;9205;52.032;4.314;2022-07-06T01:43:54;2.60;;;0.60;;
18159;SDS011;9205;52.032;4.314;2022-07-06T01:46:21;0.60;;;0.60;;
18159;SDS011;9205;52.032;4.314;2022-07-06T01:48:49;2.17;;;0.63;;
18159;SDS011;9205;52.032;4.314;2022-07-06T01:51:16;1.33;;;0.80;;
18159;SDS011;9205;52.032;4.314;2022-07-06T01:53:45;2.50;;;0.60;;
18159;SDS011;9205;52.032;4.314;2022-07-06T01:56:17;0.60;;;0.60;;
18159;SDS011;9205;52.032;4.314;2022-07-06T01:58:49;5.23;;;1.90;;
18159;SDS011;9205;52.032;4.314;2022-07-06T02:01:17;2.40;;;0.87;;
18159;SDS011;9205;52.032;4.314;2022-07-06T02:03:46;0.63;;;0.57;;
18159;SDS011;9205;52.032;4.314;2022-07-06T02:06:14;1.83;;;0.50;;
18159;SDS011;9205;52.032;4.314;2022-07-06T02:08:45;1.43;;;0.70;;
18159;SDS011;9205;52.032;4.314;2022-07-06T02:11:18;1.13;;;0.70;;
18159;SDS011;9205;52.032;4.314;2022-07-06T02:13:45;2.10;;;0.80;;
18159;SDS011;9205;52.032;4.314;2022-07-06T02:16:12;2.57;;;0.80;;
18159;SDS011;9205;52.032;4.314;2022-07-06T02:18:40;2.00;;;0.80;;
18159;SDS011;9205;52.032;4.314;2022-07-06T02:21:07;1.17;;;0.60;;
18159;SDS011;9205;52.032;4.314;2022-07-06T02:23:34;1.93;;;0.57;;
18159;SDS011;9205;52.032;4.314;2022-07-06T02:26:02;1.93;;;0.70;;
18159;SDS011;9205;52.032;4.314;2022-07-06T02:28:31;0.80;;;0.60;;
18159;SDS011;9205;52.032;4.314;2022-07-06T02:30:59;1.70;;;0.70;;
18159;SDS011;9205;52.032;4.314;2022-07-06T02:33:27;1.53;;;0.80;;
18159;SDS011;9205;52.032;4.314;2022-07-06T02:35:55;1.50;;;0.60;;
18159;SDS011;9205;52.032;4.314;2022-07-06T02:38:42;1.33;;;0.60;;
18159;SDS011;9205;52.032;4.314;2022-07-06T02:41:10;0.90;;;0.70;;
18159;SDS011;9205;52.032;4.314;2022-07-06T02:43:38;0.83;;;0.63;;
18159;SDS011;9205;52.032;4.314;2022-07-06T02:46:09;1.27;;;0.70;;
18159;SDS011;9205;52.032;4.314;2022-07-06T02:48:36;1.07;;;0.60;;
18159;SDS011;9205;52.032;4.314;2022-07-06T02:51:04;1.97;;;0.80;;
18159;SDS011;9205;52.032;4.314;2022-07-06T02:53:33;0.80;;;0.70;;
18159;SDS011;9205;52.032;4.314;2022-07-06T02:56:00;1.17;;;0.70;;
18159;SDS011;9205;52.032;4.314;2022-07-06T02:58:29;0.60;;;0.60;;
18159;SDS011;9205;52.032;4.314;2022-07-06T03:00:58;1.30;;;0.60;;
18159;SDS011;9205;52.032;4.314;2022-07-06T03:03:25;0.50;;;0.50;;
18159;SDS011;9205;52.032;4.314;2022-07-06T03:05:52;1.30;;;0.70;;
18159;SDS011;9205;52.032;4.314;2022-07-06T03:08:20;1.47;;;0.80;;
18159;SDS011;9205;52.032;4.314;2022-07-06T03:10:48;1.90;;;0.73;;
18159;SDS011;9205;52.032;4.314;2022-07-06T03:13:16;2.77;;;0.87;;
18159;SDS011;9205;52.032;4.314;2022-07-06T03:15:44;0.90;;;0.70;;
18159;SDS011;9205;52.032;4.314;2022-07-06T03:18:13;1.20;;;0.60;;
18159;SDS011;9205;52.032;4.314;2022-07-06T03:20:40;1.43;;;0.80;;
18159;SDS011;9205;52.032;4.314;2022-07-06T03:23:10;0.90;;;0.70;;
18159;SDS011;9205;52.032;4.314;2022-07-06T03:25:37;1.50;;;0.70;;
18159;SDS011;9205;52.032;4.314;2022-07-06T03:28:05;5.27;;;0.87;;
18159;SDS011;9205;52.032;4.314;2022-07-06T03:30:32;1.77;;;0.80;;
18159;SDS011;9205;52.032;4.314;2022-07-06T03:32:59;0.70;;;0.70;;
18159;SDS011;9205;52.032;4.314;2022-07-06T03:35:29;1.03;;;0.80;;
18159;SDS011;9205;52.032;4.314;2022-07-06T03:37:57;1.17;;;0.80;;
18159;SDS011;9205;52.032;4.314;2022-07-06T03:40:27;1.57;;;0.70;;
18159;SDS011;9205;52.032;4.314;2022-07-06T03:42:55;1.33;;;0.70;;
18159;SDS011;9205;52.032;4.314;2022-07-06T03:45:24;0.93;;;0.73;;
18159;SDS011;9205;52.032;4.314;2022-07-06T03:47:51;1.20;;;0.80;;
18159;SDS011;9205;52.032;4.314;2022-07-06T03:50:19;2.60;;;0.90;;
18159;SDS011;9205;52.032;4.314;2022-07-06T03:52:48;1.73;;;0.80;;
18159;SDS011;9205;52.032;4.314;2022-07-06T03:55:16;1.47;;;0.80;;
18159;SDS011;9205;52.032;4.314;2022-07-06T03:57:49;2.10;;;0.70;;
18159;SDS011;9205;52.032;4.314;2022-07-06T04:00:21;1.13;;;0.70;;
18159;SDS011;9205;52.032;4.314;2022-07-06T04:02:56;0.77;;;0.70;;
18159;SDS011;9205;52.032;4.314;2022-07-06T04:05:28;3.00;;;0.80;;
18159;SDS011;9205;52.032;4.314;2022-07-06T04:07:57;2.80;;;0.90;;
18159;SDS011;9205;52.032;4.314;2022-07-06T04:10:32;0.90;;;0.70;;
18159;SDS011;9205;52.032;4.314;2022-07-06T04:13:00;0.70;;;0.70;;
18159;SDS011;9205;52.032;4.314;2022-07-06T04:15:28;1.23;;;0.97;;
18159;SDS011;9205;52.032;4.314;2022-07-06T04:17:55;1.03;;;0.70;;
18159;SDS011;9205;52.032;4.314;2022-07-06T04:20:36;2.40;;;0.83;;
18159;SDS011;9205;52.032;4.314;2022-07-06T04:23:07;4.33;;;0.80;;
18159;SDS011;9205;52.032;4.314;2022-07-06T04:25:44;0.60;;;0.60;;
18159;SDS011;9205;52.032;4.314;2022-07-06T04:28:11;0.70;;;0.70;;
18159;SDS011;9205;52.032;4.314;2022-07-06T04:30:48;1.80;;;0.70;;
18159;SDS011;9205;52.032;4.314;2022-07-06T04:33:22;1.40;;;0.50;;
18159;SDS011;9205;52.032;4.314;2022-07-06T04:35:49;0.97;;;0.60;;
18159;SDS011;9205;52.032;4.314;2022-07-06T04:38:20;1.57;;;0.67;;
18159;SDS011;9205;52.032;4.314;2022-07-06T04:41:15;1.53;;;0.77;;
18159;SDS011;9205;52.032;4.314;2022-07-06T04:43:43;0.87;;;0.63;;
18159;SDS011;9205;52.032;4.314;2022-07-06T04:46:13;2.07;;;0.63;;
18159;SDS011;9205;52.032;4.314;2022-07-06T04:48:43;2.20;;;0.70;;
18159;SDS011;9205;52.032;4.314;2022-07-06T04:51:16;1.30;;;0.67;;
18159;SDS011;9205;52.032;4.314;2022-07-06T04:53:45;0.70;;;0.70;;
18159;SDS011;9205;52.032;4.314;2022-07-06T04:56:12;1.03;;;0.60;;
18159;SDS011;9205;52.032;4.314;2022-07-06T04:58:42;0.73;;;0.70;;
18159;SDS011;9205;52.032;4.314;2022-07-06T05:01:12;0.83;;;0.60;;
18159;SDS011;9205;52.032;4.314;2022-07-06T05:03:40;0.63;;;0.60;;
18159;SDS011;9205;52.032;4.314;2022-07-06T05:06:18;2.10;;;0.70;;
18159;SDS011;9205;52.032;4.314;2022-07-06T05:08:47;1.40;;;0.67;;
18159;SDS011;9205;52.032;4.314;2022-07-06T05:11:15;0.70;;;0.70;;
18159;SDS011;9205;52.032;4.314;2022-07-06T05:13:42;0.80;;;0.60;;
18159;SDS011;9205;52.032;4.314;2022-07-06T05:16:11;5.17;;;0.70;;
18159;SDS011;9205;52.032;4.314;2022-07-06T05:18:39;2.03;;;0.70;;
18159;SDS011;9205;52.032;4.314;2022-07-06T05:21:06;0.77;;;0.70;;
18159;SDS011;9205;52.032;4.314;2022-07-06T05:23:33;1.40;;;0.80;;
18159;SDS011;9205;52.032;4.314;2022-07-06T05:26:02;3.37;;;0.90;;
18159;SDS011;9205;52.032;4.314;2022-07-06T05:28:31;2.40;;;1.00;;
18159;SDS011;9205;52.032;4.314;2022-07-06T05:30:59;2.93;;;0.70;;
18159;SDS011;9205;52.032;4.314;2022-07-06T05:33:27;0.70;;;0.70;;
18159;SDS011;9205;52.032;4.314;2022-07-06T05:35:55;0.70;;;0.60;;
18159;SDS011;9205;52.032;4.314;2022-07-06T05:38:27;1.30;;;0.60;;
18159;SDS011;9205;52.032;4.314;2022-07-06T05:40:54;4.27;;;0.70;;
18159;SDS011;9205;52.032;4.314;2022-07-06T05:43:23;1.00;;;0.67;;
18159;SDS011;9205;52.032;4.314;2022-07-06T05:45:52;0.73;;;0.60;;
18159;SDS011;9205;52.032;4.314;2022-07-06T05:48:22;1.27;;;0.70;;
18159;SDS011;9205;52.032;4.314;2022-07-06T05:51:06;0.80;;;0.60;;
18159;SDS011;9205;52.032;4.314;2022-07-06T05:53:33;1.23;;;0.60;;
18159;SDS011;9205;52.032;4.314;2022-07-06T05:56:01;0.63;;;0.53;;
18159;SDS011;9205;52.032;4.314;2022-07-06T05:58:31;2.30;;;0.60;;
18159;SDS011;9205;52.032;4.314;2022-07-06T06:00:59;1.70;;;0.70;;
18159;SDS011;9205;52.032;4.314;2022-07-06T06:03:27;1.60;;;0.67;;
18159;SDS011;9205;52.032;4.314;2022-07-06T06:05:54;1.07;;;0.50;;
18159;SDS011;9205;52.032;4.314;2022-07-06T06:08:23;0.70;;;0.70;;
18159;SDS011;9205;52.032;4.314;2022-07-06T06:10:51;3.70;;;0.60;;
18159;SDS011;9205;52.032;4.314;2022-07-06T06:13:21;1.53;;;0.60;;
18159;SDS011;9205;52.032;4.314;2022-07-06T06:15:50;0.67;;;0.50;;
18159;SDS011;9205;52.032;4.314;2022-07-06T06:18:18;1.17;;;0.70;;
18159;SDS011;9205;52.032;4.314;2022-07-06T06:20:45;0.40;;;0.40;;
18159;SDS011;9205;52.032;4.314;2022-07-06T06:23:12;0.43;;;0.43;;
18159;SDS011;9205;52.032;4.314;2022-07-06T06:25:40;1.93;;;0.70;;
18159;SDS011;9205;52.032;4.314;2022-07-06T06:28:09;1.27;;;0.60;;
18159;SDS011;9205;52.032;4.314;2022-07-06T06:30:37;1.80;;;0.50;;
18159;SDS011;9205;52.032;4.314;2022-07-06T06:33:10;0.50;;;0.50;;
18159;SDS011;9205;52.032;4.314;2022-07-06T06:35:42;0.73;;;0.57;;
18159;SDS011;9205;52.032;4.314;2022-07-06T06:38:11;0.50;;;0.50;;
18159;SDS011;9205;52.032;4.314;2022-07-06T06:40:38;0.50;;;0.50;;
18159;SDS011;9205;52.032;4.314;2022-07-06T06:43:06;1.63;;;0.60;;
18159;SDS011;9205;52.032;4.314;2022-07-06T06:45:39;0.50;;;0.50;;
18159;SDS011;9205;52.032;4.314;2022-07-06T06:48:07;2.93;;;0.60;;
18159;SDS011;9205;52.032;4.314;2022-07-06T06:50:35;0.77;;;0.60;;
18159;SDS011;9205;52.032;4.314;2022-07-06T06:53:03;1.33;;;0.60;;
18159;SDS011;9205;52.032;4.314;2022-07-06T06:55:30;2.57;;;0.50;;
18159;SDS011;9205;52.032;4.314;2022-07-06T06:57:57;1.17;;;0.50;;
18159;SDS011;9205;52.032;4.314;2022-07-06T07:00:25;0.60;;;0.60;;
18159;SDS011;9205;52.032;4.314;2022-07-06T07:02:52;0.70;;;0.53;;
18159;SDS011;9205;52.032;4.314;2022-07-06T07:05:19;2.50;;;0.60;;
18159;SDS011;9205;52.032;4.314;2022-07-06T07:07:50;1.20;;;0.43;;
18159;SDS011;9205;52.032;4.314;2022-07-06T07:10:19;0.40;;;0.40;;
18159;SDS011;9205;52.032;4.314;2022-07-06T07:12:47;0.40;;;0.40;;
18159;SDS011;9205;52.032;4.314;2022-07-06T07:15:15;0.83;;;0.50;;
18159;SDS011;9205;52.032;4.314;2022-07-06T07:17:42;1.93;;;0.60;;
18159;SDS011;9205;52.032;4.314;2022-07-06T07:20:10;1.60;;;0.50;;
18159;SDS011;9205;52.032;4.314;2022-07-06T07:22:38;0.70;;;0.50;;
18159;SDS011;9205;52.032;4.314;2022-07-06T07:25:07;0.50;;;0.40;;
18159;SDS011;9205;52.032;4.314;2022-07-06T07:27:35;0.97;;;0.50;;
18159;SDS011;9205;52.032;4.314;2022-07-06T07:30:02;4.33;;;0.50;;
18159;SDS011;9205;52.032;4.314;2022-07-06T07:32:31;2.73;;;0.50;;
18159;SDS011;9205;52.032;4.314;2022-07-06T07:34:58;0.50;;;0.50;;
18159;SDS011;9205;52.032;4.314;2022-07-06T07:37:26;0.50;;;0.50;;
18159;SDS011;9205;52.032;4.314;2022-07-06T07:39:53;1.70;;;0.50;;
18159;SDS011;9205;52.032;4.314;2022-07-06T07:42:22;0.40;;;0.40;;
18159;SDS011;9205;52.032;4.314;2022-07-06T07:44:50;1.80;;;0.40;;
18159;SDS011;9205;52.032;4.314;2022-07-06T07:47:17;0.67;;;0.43;;
18159;SDS011;9205;52.032;4.314;2022-07-06T07:49:44;1.93;;;0.50;;
18159;SDS011;9205;52.032;4.314;2022-07-06T07:52:11;0.97;;;0.50;;
18159;SDS011;9205;52.032;4.314;2022-07-06T07:54:39;0.40;;;0.40;;
18159;SDS011;9205;52.032;4.314;2022-07-06T07:57:06;0.40;;;0.40;;
18159;SDS011;9205;52.032;4.314;2022-07-06T07:59:36;1.00;;;0.50;;
18159;SDS011;9205;52.032;4.314;2022-07-06T08:02:03;1.07;;;0.50;;
18159;SDS011;9205;52.032;4.314;2022-07-06T08:04:30;0.43;;;0.43;;
18159;SDS011;9205;52.032;4.314;2022-07-06T08:06:57;1.40;;;0.40;;
18159;SDS011;9205;52.032;4.314;2022-07-06T08:09:28;0.50;;;0.50;;
18159;SDS011;9205;52.032;4.314;2022-07-06T08:11:55;0.40;;;0.40;;
18159;SDS011;9205;52.032;4.314;2022-07-06T08:14:23;0.83;;;0.50;;
18159;SDS011;9205;52.032;4.314;2022-07-06T08:16:52;0.70;;;0.50;;
18159;SDS011;9205;52.032;4.314;2022-07-06T08:19:20;2.03;;;0.47;;
18159;SDS011;9205;52.032;4.314;2022-07-06T08:21:47;0.50;;;0.47;;
18159;SDS011;9205;52.032;4.314;2022-07-06T08:24:18;1.90;;;0.40;;
18159;SDS011;9205;52.032;4.314;2022-07-06T08:26:46;3.80;;;0.47;;
18159;SDS011;9205;52.032;4.314;2022-07-06T08:29:13;1.17;;;0.50;;
18159;SDS011;9205;52.032;4.314;2022-07-06T08:31:41;0.70;;;0.50;;
18159;SDS011;9205;52.032;4.314;2022-07-06T08:34:10;0.60;;;0.50;;
18159;SDS011;9205;52.032;4.314;2022-07-06T08:36:37;0.90;;;0.50;;
18159;SDS011;9205;52.032;4.314;2022-07-06T08:39:05;1.27;;;0.40;;
18159;SDS011;9205;52.032;4.314;2022-07-06T08:41:33;0.40;;;0.40;;
18159;SDS011;9205;52.032;4.314;2022-07-06T08:44:02;0.97;;;0.77;;
18159;SDS011;9205;52.032;4.314;2022-07-06T08:46:31;1.47;;;0.53;;
18159;SDS011;9205;52.032;4.314;2022-07-06T08:48:58;3.10;;;0.47;;
18159;SDS011;9205;52.032;4.314;2022-07-06T08:51:29;1.47;;;0.60;;
18159;SDS011;9205;52.032;4.314;2022-07-06T08:53:57;0.60;;;0.40;;
18159;SDS011;9205;52.032;4.314;2022-07-06T08:56:25;0.73;;;0.40;;
18159;SDS011;9205;52.032;4.314;2022-07-06T08:58:56;0.70;;;0.40;;
18159;SDS011;9205;52.032;4.314;2022-07-06T09:01:23;0.97;;;0.60;;
18159;SDS011;9205;52.032;4.314;2022-07-06T09:03:51;1.03;;;0.40;;
18159;SDS011;9205;52.032;4.314;2022-07-06T09:06:23;1.63;;;0.40;;
18159;SDS011;9205;52.032;4.314;2022-07-06T09:08:53;1.57;;;0.33;;
18159;SDS011;9205;52.032;4.314;2022-07-06T09:11:24;0.87;;;0.40;;
18159;SDS011;9205;52.032;4.314;2022-07-06T09:13:52;0.70;;;0.47;;
18159;SDS011;9205;52.032;4.314;2022-07-06T09:16:24;6.07;;;0.60;;
18159;SDS011;9205;52.032;4.314;2022-07-06T09:18:54;0.57;;;0.40;;
18159;SDS011;9205;52.032;4.314;2022-07-06T09:21:22;0.47;;;0.33;;
18159;SDS011;9205;52.032;4.314;2022-07-06T09:23:56;0.80;;;0.80;;
18159;SDS011;9205;52.032;4.314;2022-07-06T09:26:25;1.27;;;0.30;;
18159;SDS011;9205;52.032;4.314;2022-07-06T09:28:54;1.80;;;0.40;;
18159;SDS011;9205;52.032;4.314;2022-07-06T09:31:24;2.53;;;0.50;;
18159;SDS011;9205;52.032;4.314;2022-07-06T09:33:55;0.50;;;0.47;;
18159;SDS011;9205;52.032;4.314;2022-07-06T09:39:17;0.73;;;0.60;;
18159;SDS011;9205;52.032;4.314;2022-07-06T09:41:46;1.63;;;0.50;;
18159;SDS011;9205;52.032;4.314;2022-07-06T09:44:20;1.60;;;0.50;;
18159;SDS011;9205;52.032;4.314;2022-07-06T09:46:50;1.33;;;0.50;;
18159;SDS011;9205;52.032;4.314;2022-07-06T09:49:19;1.40;;;0.50;;
18159;SDS011;9205;52.032;4.314;2022-07-06T09:51:49;0.47;;;0.47;;
18159;SDS011;9205;52.032;4.314;2022-07-06T09:54:20;2.20;;;0.60;;
18159;SDS011;9205;52.032;4.314;2022-07-06T09:56:49;1.07;;;0.50;;
18159;SDS011;9205;52.032;4.314;2022-07-06T09:59:18;1.27;;;0.70;;
18159;SDS011;9205;52.032;4.314;2022-07-06T10:01:50;0.83;;;0.60;;
18159;SDS011;9205;52.032;4.314;2022-07-06T10:04:21;0.40;;;0.40;;
18159;SDS011;9205;52.032;4.314;2022-07-06T10:06:50;1.80;;;0.50;;
18159;SDS011;9205;52.032;4.314;2022-07-06T10:09:22;1.03;;;0.40;;
18159;SDS011;9205;52.032;4.314;2022-07-06T10:11:52;2.27;;;0.50;;
18159;SDS011;9205;52.032;4.314;2022-07-06T10:14:21;0.80;;;0.57;;
18159;SDS011;9205;52.032;4.314;2022-07-06T10:16:50;1.60;;;0.50;;
18159;SDS011;9205;52.032;4.314;2022-07-06T10:19:19;0.40;;;0.40;;
18159;SDS011;9205;52.032;4.314;2022-07-06T10:21:47;1.27;;;0.60;;
18159;SDS011;9205;52.032;4.314;2022-07-06T10:24:16;1.07;;;0.70;;
18159;SDS011;9205;52.032;4.314;2022-07-06T10:26:47;1.53;;;0.40;;
18159;SDS011;9205;52.032;4.314;2022-07-06T10:29:15;4.07;;;0.60;;
18159;SDS011;9205;52.032;4.314;2022-07-06T10:31:43;0.60;;;0.60;;
18159;SDS011;9205;52.032;4.314;2022-07-06T10:34:17;1.43;;;0.60;;
18159;SDS011;9205;52.032;4.314;2022-07-06T10:36:48;1.57;;;0.80;;
18159;SDS011;9205;52.032;4.314;2022-07-06T10:39:31;3.20;;;0.70;;
18159;SDS011;9205;52.032;4.314;2022-07-06T10:45:15;1.57;;;0.60;;
18159;SDS011;9205;52.032;4.314;2022-07-06T10:48:16;1.40;;;0.70;;
18159;SDS011;9205;52.032;4.314;2022-07-06T10:50:46;0.70;;;0.70;;
18159;SDS011;9205;52.032;4.314;2022-07-06T10:53:16;1.80;;;0.90;;
18159;SDS011;9205;52.032;4.314;2022-07-06T10:55:47;0.97;;;0.70;;
18159;SDS011;9205;52.032;4.314;2022-07-06T11:01:12;3.67;;;0.80;;
18159;SDS011;9205;52.032;4.314;2022-07-06T11:04:12;1.17;;;0.67;;
18159;SDS011;9205;52.032;4.314;2022-07-06T11:06:51;1.03;;;0.70;;
18159;SDS011;9205;52.032;4.314;2022-07-06T11:18:59;4.33;;;0.90;;
18159;SDS011;9205;52.032;4.314;2022-07-06T11:26:08;1.53;;;1.00;;
18159;SDS011;9205;52.032;4.314;2022-07-06T11:28:53;1.80;;;0.70;;
18159;SDS011;9205;52.032;4.314;2022-07-06T11:31:24;1.77;;;0.80;;
18159;SDS011;9205;52.032;4.314;2022-07-06T11:34:12;1.27;;;0.80;;
18159;SDS011;9205;52.032;4.314;2022-07-06T11:40:21;2.13;;;0.70;;
18159;SDS011;9205;52.032;4.314;2022-07-06T11:43:05;0.60;;;0.60;;
18159;SDS011;9205;52.032;4.314;2022-07-06T11:45:58;2.77;;;0.70;;
18159;SDS011;9205;52.032;4.314;2022-07-06T11:49:02;0.97;;;0.60;;
18159;SDS011;9205;52.032;4.314;2022-07-06T11:51:57;2.90;;;0.80;;
18159;SDS011;9205;52.032;4.314;2022-07-06T11:54:25;2.13;;;0.70;;
18159;SDS011;9205;52.032;4.314;2022-07-06T11:56:55;1.63;;;0.77;;
18159;SDS011;9205;52.032;4.314;2022-07-06T11:59:41;1.10;;;0.70;;
18159;SDS011;9205;52.032;4.314;2022-07-06T12:02:12;1.00;;;0.90;;
18159;SDS011;9205;52.032;4.314;2022-07-06T12:04:43;1.93;;;0.90;;
18159;SDS011;9205;52.032;4.314;2022-07-06T12:07:15;3.73;;;1.27;;
18159;SDS011;9205;52.032;4.314;2022-07-06T12:09:43;1.33;;;1.03;;
18159;SDS011;9205;52.032;4.314;2022-07-06T12:12:12;1.47;;;1.00;;
18159;SDS011;9205;52.032;4.314;2022-07-06T12:14:41;2.23;;;0.90;;
18159;SDS011;9205;52.032;4.314;2022-07-06T12:17:09;1.47;;;0.90;;
18159;SDS011;9205;52.032;4.314;2022-07-06T12:19:40;2.60;;;0.93;;
18159;SDS011;9205;52.032;4.314;2022-07-06T12:22:08;2.57;;;1.10;;
18159;SDS011;9205;52.032;4.314;2022-07-06T12:24:50;2.60;;;1.00;;
18159;SDS011;9205;52.032;4.314;2022-07-06T12:27:19;3.37;;;1.10;;
18159;SDS011;9205;52.032;4.314;2022-07-06T12:29:47;5.90;;;1.30;;
18159;SDS011;9205;52.032;4.314;2022-07-06T12:32:15;3.60;;;1.20;;
18159;SDS011;9205;52.032;4.314;2022-07-06T12:34:45;1.53;;;1.03;;
18159;SDS011;9205;52.032;4.314;2022-07-06T12:37:21;4.27;;;1.30;;
18159;SDS011;9205;52.032;4.314;2022-07-06T12:39:48;7.87;;;2.00;;
18159;SDS011;9205;52.032;4.314;2022-07-06T12:42:16;3.07;;;1.10;;
18159;SDS011;9205;52.032;4.314;2022-07-06T12:44:46;1.87;;;1.20;;
18159;SDS011;9205;52.032;4.314;2022-07-06T12:47:17;4.30;;;1.13;;
18159;SDS011;9205;52.032;4.314;2022-07-06T12:49:46;2.47;;;1.30;;
18159;SDS011;9205;52.032;4.314;2022-07-06T12:52:16;1.97;;;1.40;;
18159;SDS011;9205;52.032;4.314;2022-07-06T12:54:44;2.93;;;1.37;;
18159;SDS011;9205;52.032;4.314;2022-07-06T12:57:14;3.63;;;1.70;;
18159;SDS011;9205;52.032;4.314;2022-07-06T12:59:44;3.00;;;1.60;;
18159;SDS011;9205;52.032;4.314;2022-07-06T13:02:19;4.83;;;2.00;;
18159;SDS011;9205;52.032;4.314;2022-07-06T13:04:55;4.27;;;1.90;;
18159;SDS011;9205;52.032;4.314;2022-07-06T13:07:25;2.97;;;1.73;;
18159;SDS011;9205;52.032;4.314;2022-07-06T13:09:54;4.83;;;1.47;;
18159;SDS011;9205;52.032;4.314;2022-07-06T13:12:22;3.60;;;1.50;;
18159;SDS011;9205;52.032;4.314;2022-07-06T13:14:49;2.70;;;1.60;;
18159;SDS011;9205;52.032;4.314;2022-07-06T13:17:18;4.40;;;1.73;;
18159;SDS011;9205;52.032;4.314;2022-07-06T13:19:46;4.40;;;1.80;;
18159;SDS011;9205;52.032;4.314;2022-07-06T13:22:14;4.00;;;2.00;;
18159;SDS011;9205;52.032;4.314;2022-07-06T13:24:43;5.37;;;2.23;;
18159;SDS011;9205;52.032;4.314;2022-07-06T13:27:11;5.73;;;2.40;;
18159;SDS011;9205;52.032;4.314;2022-07-06T13:29:39;5.87;;;2.67;;
18159;SDS011;9205;52.032;4.314;2022-07-06T13:32:06;4.00;;;2.27;;
18159;SDS011;9205;52.032;4.314;2022-07-06T13:34:34;8.43;;;2.47;;
18159;SDS011;9205;52.032;4.314;2022-07-06T13:37:04;3.80;;;2.00;;
18159;SDS011;9205;52.032;4.314;2022-07-06T13:39:32;4.93;;;2.20;;
18159;SDS011;9205;52.032;4.314;2022-07-06T13:42:01;12.17;;;2.47;;
18159;SDS011;9205;52.032;4.314;2022-07-06T13:44:29;6.50;;;2.30;;
18159;SDS011;9205;52.032;4.314;2022-07-06T13:46:57;6.23;;;2.20;;
18159;SDS011;9205;52.032;4.314;2022-07-06T13:49:24;6.80;;;3.30;;
18159;SDS011;9205;52.032;4.314;2022-07-06T13:51:51;6.33;;;2.93;;
18159;SDS011;9205;52.032;4.314;2022-07-06T13:54:20;5.87;;;2.73;;
18159;SDS011;9205;52.032;4.314;2022-07-06T13:56:48;8.17;;;3.00;;
18159;SDS011;9205;52.032;4.314;2022-07-06T13:59:17;4.77;;;2.90;;
18159;SDS011;9205;52.032;4.314;2022-07-06T14:01:45;6.73;;;3.00;;
18159;SDS011;9205;52.032;4.314;2022-07-06T14:04:12;5.17;;;2.37;;
18159;SDS011;9205;52.032;4.314;2022-07-06T14:06:39;4.30;;;2.60;;
18159;SDS011;9205;52.032;4.314;2022-07-06T14:09:06;3.93;;;2.67;;
18159;SDS011;9205;52.032;4.314;2022-07-06T14:11:34;7.87;;;3.00;;
18159;SDS011;9205;52.032;4.314;2022-07-06T14:14:01;6.43;;;2.80;;
18159;SDS011;9205;52.032;4.314;2022-07-06T14:16:33;4.13;;;2.70;;
18159;SDS011;9205;52.032;4.314;2022-07-06T14:19:02;6.20;;;3.40;;
18159;SDS011;9205;52.032;4.314;2022-07-06T14:21:29;6.40;;;3.83;;
18159;SDS011;9205;52.032;4.314;2022-07-06T14:23:56;5.70;;;3.03;;
18159;SDS011;9205;52.032;4.314;2022-07-06T14:26:24;6.07;;;3.90;;
18159;SDS011;9205;52.032;4.314;2022-07-06T14:28:52;8.33;;;4.00;;
18159;SDS011;9205;52.032;4.314;2022-07-06T14:31:19;6.20;;;3.17;;
18159;SDS011;9205;52.032;4.314;2022-07-06T14:33:48;7.83;;;3.50;;
18159;SDS011;9205;52.032;4.314;2022-07-06T14:36:16;7.30;;;2.60;;
18159;SDS011;9205;52.032;4.314;2022-07-06T14:38:44;10.23;;;2.63;;
18159;SDS011;9205;52.032;4.314;2022-07-06T14:41:11;3.27;;;2.00;;
18159;SDS011;9205;52.032;4.314;2022-07-06T14:43:38;5.63;;;2.20;;
18159;SDS011;9205;52.032;4.314;2022-07-06T14:46:06;5.90;;;1.90;;
18159;SDS011;9205;52.032;4.314;2022-07-06T14:48:33;3.33;;;1.43;;
18159;SDS011;9205;52.032;4.314;2022-07-06T14:51:02;4.17;;;1.60;;
18159;SDS011;9205;52.032;4.314;2022-07-06T14:53:29;3.23;;;1.70;;
18159;SDS011;9205;52.032;4.314;2022-07-06T14:55:57;4.77;;;1.70;;
18159;SDS011;9205;52.032;4.314;2022-07-06T14:58:24;5.63;;;1.90;;
18159;SDS011;9205;52.032;4.314;2022-07-06T15:00:52;7.47;;;2.47;;
18159;SDS011;9205;52.032;4.314;2022-07-06T15:03:19;3.23;;;1.70;;
18159;SDS011;9205;52.032;4.314;2022-07-06T15:05:47;3.80;;;1.60;;
18159;SDS011;9205;52.032;4.314;2022-07-06T15:08:19;3.40;;;1.20;;
18159;SDS011;9205;52.032;4.314;2022-07-06T15:10:46;2.77;;;1.30;;
18159;SDS011;9205;52.032;4.314;2022-07-06T15:13:14;5.37;;;1.40;;
18159;SDS011;9205;52.032;4.314;2022-07-06T15:15:41;5.50;;;1.20;;
18159;SDS011;9205;52.032;4.314;2022-07-06T15:18:10;3.10;;;1.17;;
18159;SDS011;9205;52.032;4.314;2022-07-06T15:20:38;5.57;;;1.07;;
18159;SDS011;9205;52.032;4.314;2022-07-06T15:23:05;2.03;;;0.80;;
18159;SDS011;9205;52.032;4.314;2022-07-06T15:25:37;1.23;;;1.00;;
18159;SDS011;9205;52.032;4.314;2022-07-06T15:28:04;2.13;;;1.07;;
18159;SDS011;9205;52.032;4.314;2022-07-06T15:30:31;2.50;;;0.83;;
18159;SDS011;9205;52.032;4.314;2022-07-06T15:32:59;3.43;;;1.20;;
18159;SDS011;9205;52.032;4.314;2022-07-06T15:35:27;3.93;;;1.20;;
18159;SDS011;9205;52.032;4.314;2022-07-06T15:37:54;6.20;;;1.80;;
18159;SDS011;9205;52.032;4.314;2022-07-06T15:40:24;1.60;;;1.00;;
18159;SDS011;9205;52.032;4.314;2022-07-06T15:43:07;2.40;;;0.90;;
18159;SDS011;9205;52.032;4.314;2022-07-06T15:45:36;2.50;;;1.20;;